sensor_id;sensor_type;location;lat;lon;timestamp;P1;durP1;ratioP1;P2;durP2;ratioP2
57989;SDS011;58373;51.824;5.564;2022-08-20T00:00:59;16.42;;;14.82;;
57989;SDS011;58373;51.824;5.564;2022-08-20T00:05:57;16.15;;;14.48;;
57989;SDS011;58373;51.824;5.564;2022-08-20T00:08:23;16.80;;;15.10;;
57989;SDS011;58373;51.824;5.564;2022-08-20T00:10:50;17.60;;;15.80;;
57989;SDS011;58373;51.824;5.564;2022-08-20T00:13:18;16.35;;;14.77;;
57989;SDS011;58373;51.824;5.564;2022-08-20T00:15:46;16.55;;;14.73;;
57989;SDS011;58373;51.824;5.564;2022-08-20T00:18:12;16.55;;;14.15;;
57989;SDS011;58373;51.824;5.564;2022-08-20T00:20:40;17.02;;;15.30;;
57989;SDS011;58373;51.824;5.564;2022-08-20T00:23:08;15.68;;;14.07;;
57989;SDS011;58373;51.824;5.564;2022-08-20T00:25:34;15.50;;;13.75;;
57989;SDS011;58373;51.824;5.564;2022-08-20T00:28:00;15.35;;;13.85;;
57989;SDS011;58373;51.824;5.564;2022-08-20T00:30:27;16.65;;;14.90;;
57989;SDS011;58373;51.824;5.564;2022-08-20T00:32:55;15.50;;;13.90;;
57989;SDS011;58373;51.824;5.564;2022-08-20T00:35:24;15.38;;;13.82;;
57989;SDS011;58373;51.824;5.564;2022-08-20T00:37:51;15.50;;;13.90;;
57989;SDS011;58373;51.824;5.564;2022-08-20T00:40:18;16.38;;;14.10;;
57989;SDS011;58373;51.824;5.564;2022-08-20T00:42:50;16.08;;;14.45;;
57989;SDS011;58373;51.824;5.564;2022-08-20T00:45:18;15.98;;;13.95;;
57989;SDS011;58373;51.824;5.564;2022-08-20T00:47:44;16.33;;;13.37;;
57989;SDS011;58373;51.824;5.564;2022-08-20T00:50:14;15.43;;;12.82;;
57989;SDS011;58373;51.824;5.564;2022-08-20T00:52:41;14.35;;;12.57;;
57989;SDS011;58373;51.824;5.564;2022-08-20T00:55:10;14.13;;;12.15;;
57989;SDS011;58373;51.824;5.564;2022-08-20T00:57:37;13.05;;;11.57;;
57989;SDS011;58373;51.824;5.564;2022-08-20T01:00:09;13.02;;;11.40;;
57989;SDS011;58373;51.824;5.564;2022-08-20T01:02:38;12.65;;;11.35;;
57989;SDS011;58373;51.824;5.564;2022-08-20T01:05:06;13.25;;;11.85;;
57989;SDS011;58373;51.824;5.564;2022-08-20T01:07:33;13.50;;;11.55;;
57989;SDS011;58373;51.824;5.564;2022-08-20T01:10:03;13.55;;;11.73;;
57989;SDS011;58373;51.824;5.564;2022-08-20T01:12:31;13.95;;;11.63;;
57989;SDS011;58373;51.824;5.564;2022-08-20T01:14:57;13.30;;;11.52;;
57989;SDS011;58373;51.824;5.564;2022-08-20T01:22:37;13.65;;;10.95;;
57989;SDS011;58373;51.824;5.564;2022-08-20T01:28:47;15.07;;;11.63;;
57989;SDS011;58373;51.824;5.564;2022-08-20T01:31:24;12.60;;;11.25;;
57989;SDS011;58373;51.824;5.564;2022-08-20T01:33:52;13.90;;;11.57;;
57989;SDS011;58373;51.824;5.564;2022-08-20T01:36:22;13.43;;;11.90;;
57989;SDS011;58373;51.824;5.564;2022-08-20T01:38:55;16.38;;;12.20;;
57989;SDS011;58373;51.824;5.564;2022-08-20T01:41:30;12.98;;;11.52;;
57989;SDS011;58373;51.824;5.564;2022-08-20T01:44:00;12.88;;;11.45;;
57989;SDS011;58373;51.824;5.564;2022-08-20T01:46:27;15.52;;;11.30;;
57989;SDS011;58373;51.824;5.564;2022-08-20T01:48:57;12.63;;;11.30;;
57989;SDS011;58373;51.824;5.564;2022-08-20T01:51:25;14.10;;;11.25;;
57989;SDS011;58373;51.824;5.564;2022-08-20T01:53:54;13.85;;;11.77;;
57989;SDS011;58373;51.824;5.564;2022-08-20T01:56:25;13.40;;;11.18;;
57989;SDS011;58373;51.824;5.564;2022-08-20T01:58:53;13.48;;;11.20;;
57989;SDS011;58373;51.824;5.564;2022-08-20T02:01:22;14.05;;;11.75;;
57989;SDS011;58373;51.824;5.564;2022-08-20T02:03:57;12.50;;;11.18;;
57989;SDS011;58373;51.824;5.564;2022-08-20T02:06:23;12.90;;;11.60;;
57989;SDS011;58373;51.824;5.564;2022-08-20T02:08:50;15.00;;;11.65;;
57989;SDS011;58373;51.824;5.564;2022-08-20T02:11:24;13.57;;;11.57;;
57989;SDS011;58373;51.824;5.564;2022-08-20T02:13:52;14.27;;;11.98;;
57989;SDS011;58373;51.824;5.564;2022-08-20T02:16:19;13.88;;;12.35;;
57989;SDS011;58373;51.824;5.564;2022-08-20T02:18:56;14.30;;;12.32;;
57989;SDS011;58373;51.824;5.564;2022-08-20T02:21:24;14.13;;;12.27;;
57989;SDS011;58373;51.824;5.564;2022-08-20T02:23:53;13.45;;;11.95;;
57989;SDS011;58373;51.824;5.564;2022-08-20T02:26:19;14.82;;;11.25;;
57989;SDS011;58373;51.824;5.564;2022-08-20T02:28:45;13.43;;;11.32;;
57989;SDS011;58373;51.824;5.564;2022-08-20T02:31:15;12.35;;;10.95;;
57989;SDS011;58373;51.824;5.564;2022-08-20T02:33:41;13.23;;;11.60;;
57989;SDS011;58373;51.824;5.564;2022-08-20T02:36:08;14.60;;;12.30;;
57989;SDS011;58373;51.824;5.564;2022-08-20T02:38:35;14.85;;;11.98;;
57989;SDS011;58373;51.824;5.564;2022-08-20T02:41:03;13.20;;;11.10;;
57989;SDS011;58373;51.824;5.564;2022-08-20T02:43:29;14.48;;;11.85;;
57989;SDS011;58373;51.824;5.564;2022-08-20T02:45:56;13.43;;;12.02;;
57989;SDS011;58373;51.824;5.564;2022-08-20T02:48:21;14.02;;;11.95;;
57989;SDS011;58373;51.824;5.564;2022-08-20T02:50:48;14.73;;;12.23;;
57989;SDS011;58373;51.824;5.564;2022-08-20T02:53:16;14.57;;;12.73;;
57989;SDS011;58373;51.824;5.564;2022-08-20T02:55:41;15.48;;;12.32;;
57989;SDS011;58373;51.824;5.564;2022-08-20T02:58:07;14.68;;;12.48;;
57989;SDS011;58373;51.824;5.564;2022-08-20T03:00:33;15.45;;;12.93;;
57989;SDS011;58373;51.824;5.564;2022-08-20T03:02:59;14.45;;;12.93;;
57989;SDS011;58373;51.824;5.564;2022-08-20T03:05:25;15.57;;;13.98;;
57989;SDS011;58373;51.824;5.564;2022-08-20T03:07:51;14.95;;;12.70;;
57989;SDS011;58373;51.824;5.564;2022-08-20T03:10:22;14.60;;;13.13;;
57989;SDS011;58373;51.824;5.564;2022-08-20T03:12:49;15.27;;;13.77;;
57989;SDS011;58373;51.824;5.564;2022-08-20T03:15:15;15.73;;;13.98;;
57989;SDS011;58373;51.824;5.564;2022-08-20T03:17:40;17.35;;;14.05;;
57989;SDS011;58373;51.824;5.564;2022-08-20T03:20:06;16.05;;;13.68;;
57989;SDS011;58373;51.824;5.564;2022-08-20T03:22:32;15.98;;;13.38;;
57989;SDS011;58373;51.824;5.564;2022-08-20T03:24:58;15.80;;;14.02;;
57989;SDS011;58373;51.824;5.564;2022-08-20T03:27:24;16.52;;;14.82;;
57989;SDS011;58373;51.824;5.564;2022-08-20T03:29:49;16.13;;;14.40;;
57989;SDS011;58373;51.824;5.564;2022-08-20T03:32:15;17.55;;;14.55;;
57989;SDS011;58373;51.824;5.564;2022-08-20T03:34:40;18.63;;;15.00;;
57989;SDS011;58373;51.824;5.564;2022-08-20T03:37:05;15.68;;;14.02;;
57989;SDS011;58373;51.824;5.564;2022-08-20T03:39:31;15.77;;;14.18;;
57989;SDS011;58373;51.824;5.564;2022-08-20T03:41:56;15.13;;;13.48;;
57989;SDS011;58373;51.824;5.564;2022-08-20T03:44:22;15.55;;;13.95;;
57989;SDS011;58373;51.824;5.564;2022-08-20T03:46:47;15.48;;;13.88;;
57989;SDS011;58373;51.824;5.564;2022-08-20T03:49:12;16.45;;;14.75;;
57989;SDS011;58373;51.824;5.564;2022-08-20T03:51:38;16.42;;;14.73;;
57989;SDS011;58373;51.824;5.564;2022-08-20T03:54:04;16.23;;;14.52;;
57989;SDS011;58373;51.824;5.564;2022-08-20T03:56:29;15.82;;;14.02;;
57989;SDS011;58373;51.824;5.564;2022-08-20T03:58:55;17.73;;;16.02;;
57989;SDS011;58373;51.824;5.564;2022-08-20T04:01:21;17.20;;;15.50;;
57989;SDS011;58373;51.824;5.564;2022-08-20T04:03:46;18.23;;;16.42;;
57989;SDS011;58373;51.824;5.564;2022-08-20T04:06:12;18.45;;;16.55;;
57989;SDS011;58373;51.824;5.564;2022-08-20T04:08:37;19.05;;;16.88;;
57989;SDS011;58373;51.824;5.564;2022-08-20T04:11:05;18.95;;;16.90;;
57989;SDS011;58373;51.824;5.564;2022-08-20T04:13:31;21.33;;;17.17;;
57989;SDS011;58373;51.824;5.564;2022-08-20T04:15:57;19.73;;;17.48;;
57989;SDS011;58373;51.824;5.564;2022-08-20T04:20:51;20.83;;;18.63;;
57989;SDS011;58373;51.824;5.564;2022-08-20T04:23:17;21.23;;;19.02;;
57989;SDS011;58373;51.824;5.564;2022-08-20T04:25:43;22.65;;;19.58;;
57989;SDS011;58373;51.824;5.564;2022-08-20T04:28:11;24.30;;;19.75;;
57989;SDS011;58373;51.824;5.564;2022-08-20T04:30:39;22.90;;;20.55;;
57989;SDS011;58373;51.824;5.564;2022-08-20T04:33:06;24.08;;;21.75;;
57989;SDS011;58373;51.824;5.564;2022-08-20T04:35:32;22.80;;;20.58;;
57989;SDS011;58373;51.824;5.564;2022-08-20T04:37:58;22.33;;;20.23;;
57989;SDS011;58373;51.824;5.564;2022-08-20T04:40:30;21.45;;;19.20;;
57989;SDS011;58373;51.824;5.564;2022-08-20T04:43:14;22.35;;;19.80;;
57989;SDS011;58373;51.824;5.564;2022-08-20T04:45:40;21.17;;;19.08;;
57989;SDS011;58373;51.824;5.564;2022-08-20T04:48:06;20.88;;;18.70;;
57989;SDS011;58373;51.824;5.564;2022-08-20T04:50:35;20.10;;;18.10;;
57989;SDS011;58373;51.824;5.564;2022-08-20T04:53:03;20.23;;;18.20;;
57989;SDS011;58373;51.824;5.564;2022-08-20T04:55:30;20.45;;;16.70;;
57989;SDS011;58373;51.824;5.564;2022-08-20T04:58:05;18.65;;;16.75;;
57989;SDS011;58373;51.824;5.564;2022-08-20T05:00:32;18.77;;;16.77;;
57989;SDS011;58373;51.824;5.564;2022-08-20T05:02:58;17.45;;;15.75;;
57989;SDS011;58373;51.824;5.564;2022-08-20T05:05:24;19.40;;;16.38;;
57989;SDS011;58373;51.824;5.564;2022-08-20T05:07:50;17.08;;;15.27;;
57989;SDS011;58373;51.824;5.564;2022-08-20T05:10:16;16.10;;;14.38;;
57989;SDS011;58373;51.824;5.564;2022-08-20T05:12:42;16.98;;;14.82;;
57989;SDS011;58373;51.824;5.564;2022-08-20T05:15:09;15.65;;;13.43;;
57989;SDS011;58373;51.824;5.564;2022-08-20T05:17:36;15.93;;;14.10;;
57989;SDS011;58373;51.824;5.564;2022-08-20T05:20:03;18.13;;;14.68;;
57989;SDS011;58373;51.824;5.564;2022-08-20T05:22:30;15.88;;;14.07;;
57989;SDS011;58373;51.824;5.564;2022-08-20T05:24:55;15.15;;;13.45;;
57989;SDS011;58373;51.824;5.564;2022-08-20T05:27:23;15.30;;;13.43;;
57989;SDS011;58373;51.824;5.564;2022-08-20T05:29:51;15.43;;;13.75;;
57989;SDS011;58373;51.824;5.564;2022-08-20T05:32:32;14.45;;;12.77;;
57989;SDS011;58373;51.824;5.564;2022-08-20T05:34:59;14.60;;;13.10;;
57989;SDS011;58373;51.824;5.564;2022-08-20T05:37:25;14.05;;;12.40;;
57989;SDS011;58373;51.824;5.564;2022-08-20T05:39:51;13.90;;;12.38;;
57989;SDS011;58373;51.824;5.564;2022-08-20T05:42:17;13.95;;;11.85;;
57989;SDS011;58373;51.824;5.564;2022-08-20T05:44:42;13.88;;;12.25;;
57989;SDS011;58373;51.824;5.564;2022-08-20T05:47:11;13.73;;;11.82;;
57989;SDS011;58373;51.824;5.564;2022-08-20T05:49:37;13.15;;;11.73;;
57989;SDS011;58373;51.824;5.564;2022-08-20T05:52:03;15.88;;;12.45;;
57989;SDS011;58373;51.824;5.564;2022-08-20T05:54:29;14.30;;;12.80;;
57989;SDS011;58373;51.824;5.564;2022-08-20T05:56:55;14.63;;;11.73;;
57989;SDS011;58373;51.824;5.564;2022-08-20T05:59:21;13.15;;;11.00;;
57989;SDS011;58373;51.824;5.564;2022-08-20T06:01:48;12.25;;;10.40;;
57989;SDS011;58373;51.824;5.564;2022-08-20T06:04:14;12.98;;;9.90;;
57989;SDS011;58373;51.824;5.564;2022-08-20T06:06:48;12.90;;;10.20;;
57989;SDS011;58373;51.824;5.564;2022-08-20T06:09:16;11.77;;;10.23;;
57989;SDS011;58373;51.824;5.564;2022-08-20T06:11:44;12.65;;;10.13;;
57989;SDS011;58373;51.824;5.564;2022-08-20T06:14:09;13.40;;;10.30;;
57989;SDS011;58373;51.824;5.564;2022-08-20T06:16:35;12.65;;;9.95;;
57989;SDS011;58373;51.824;5.564;2022-08-20T06:19:00;11.70;;;9.73;;
57989;SDS011;58373;51.824;5.564;2022-08-20T06:21:25;12.35;;;10.15;;
57989;SDS011;58373;51.824;5.564;2022-08-20T06:23:51;10.95;;;9.75;;
57989;SDS011;58373;51.824;5.564;2022-08-20T06:26:16;13.98;;;10.65;;
57989;SDS011;58373;51.824;5.564;2022-08-20T06:28:42;11.27;;;9.27;;
57989;SDS011;58373;51.824;5.564;2022-08-20T06:31:07;12.13;;;10.18;;
57989;SDS011;58373;51.824;5.564;2022-08-20T06:33:33;12.73;;;9.88;;
57989;SDS011;58373;51.824;5.564;2022-08-20T06:35:58;11.73;;;9.70;;
57989;SDS011;58373;51.824;5.564;2022-08-20T06:38:24;10.90;;;9.80;;
57989;SDS011;58373;51.824;5.564;2022-08-20T06:40:49;12.77;;;9.95;;
57989;SDS011;58373;51.824;5.564;2022-08-20T06:43:15;11.25;;;9.30;;
57989;SDS011;58373;51.824;5.564;2022-08-20T06:45:40;12.07;;;9.30;;
57989;SDS011;58373;51.824;5.564;2022-08-20T06:48:07;10.43;;;8.05;;
57989;SDS011;58373;51.824;5.564;2022-08-20T06:50:35;11.27;;;8.77;;
57989;SDS011;58373;51.824;5.564;2022-08-20T06:53:11;11.70;;;8.75;;
57989;SDS011;58373;51.824;5.564;2022-08-20T06:55:38;11.13;;;8.73;;
57989;SDS011;58373;51.824;5.564;2022-08-20T06:58:07;11.82;;;9.15;;
57989;SDS011;58373;51.824;5.564;2022-08-20T07:00:36;12.07;;;9.43;;
57989;SDS011;58373;51.824;5.564;2022-08-20T07:03:04;9.45;;;8.07;;
57989;SDS011;58373;51.824;5.564;2022-08-20T07:05:31;9.90;;;8.43;;
57989;SDS011;58373;51.824;5.564;2022-08-20T07:07:58;11.10;;;8.90;;
57989;SDS011;58373;51.824;5.564;2022-08-20T07:10:25;11.73;;;8.85;;
57989;SDS011;58373;51.824;5.564;2022-08-20T07:12:51;11.82;;;9.10;;
57989;SDS011;58373;51.824;5.564;2022-08-20T07:15:18;10.93;;;8.60;;
57989;SDS011;58373;51.824;5.564;2022-08-20T07:17:52;11.32;;;7.78;;
57989;SDS011;58373;51.824;5.564;2022-08-20T07:20:20;10.60;;;7.90;;
57989;SDS011;58373;51.824;5.564;2022-08-20T07:22:46;9.98;;;8.20;;
57989;SDS011;58373;51.824;5.564;2022-08-20T07:25:13;11.75;;;8.35;;
57989;SDS011;58373;51.824;5.564;2022-08-20T07:27:40;11.68;;;7.25;;
57989;SDS011;58373;51.824;5.564;2022-08-20T07:30:08;10.27;;;7.55;;
57989;SDS011;58373;51.824;5.564;2022-08-20T07:35:19;12.07;;;8.77;;
57989;SDS011;58373;51.824;5.564;2022-08-20T07:37:46;13.18;;;9.32;;
57989;SDS011;58373;51.824;5.564;2022-08-20T07:40:18;10.65;;;8.32;;
57989;SDS011;58373;51.824;5.564;2022-08-20T07:42:46;11.88;;;7.85;;
57989;SDS011;58373;51.824;5.564;2022-08-20T07:45:14;11.77;;;7.07;;
57989;SDS011;58373;51.824;5.564;2022-08-20T07:50:09;11.25;;;5.90;;
57989;SDS011;58373;51.824;5.564;2022-08-20T07:52:37;10.98;;;5.55;;
57989;SDS011;58373;51.824;5.564;2022-08-20T07:55:07;10.10;;;6.07;;
57989;SDS011;58373;51.824;5.564;2022-08-20T07:57:36;10.35;;;6.38;;
57989;SDS011;58373;51.824;5.564;2022-08-20T08:00:03;10.98;;;6.07;;
57989;SDS011;58373;51.824;5.564;2022-08-20T08:02:32;9.95;;;4.90;;
57989;SDS011;58373;51.824;5.564;2022-08-20T08:04:59;11.10;;;5.05;;
57989;SDS011;58373;51.824;5.564;2022-08-20T08:07:25;9.35;;;4.80;;
57989;SDS011;58373;51.824;5.564;2022-08-20T08:09:51;10.02;;;5.00;;
57989;SDS011;58373;51.824;5.564;2022-08-20T08:12:19;9.05;;;5.07;;
57989;SDS011;58373;51.824;5.564;2022-08-20T08:14:45;7.45;;;4.10;;
57989;SDS011;58373;51.824;5.564;2022-08-20T08:17:12;7.95;;;4.00;;
57989;SDS011;58373;51.824;5.564;2022-08-20T08:22:09;8.88;;;4.03;;
57989;SDS011;58373;51.824;5.564;2022-08-20T08:24:37;9.63;;;4.07;;
57989;SDS011;58373;51.824;5.564;2022-08-20T08:27:04;8.98;;;4.40;;
57989;SDS011;58373;51.824;5.564;2022-08-20T08:29:29;9.43;;;3.90;;
57989;SDS011;58373;51.824;5.564;2022-08-20T08:31:55;9.23;;;4.43;;
57989;SDS011;58373;51.824;5.564;2022-08-20T08:34:21;8.95;;;4.75;;
57989;SDS011;58373;51.824;5.564;2022-08-20T08:36:49;8.13;;;4.88;;
57989;SDS011;58373;51.824;5.564;2022-08-20T08:39:15;8.57;;;5.07;;
57989;SDS011;58373;51.824;5.564;2022-08-20T08:41:42;11.48;;;5.53;;
57989;SDS011;58373;51.824;5.564;2022-08-20T08:44:24;9.77;;;4.57;;
57989;SDS011;58373;51.824;5.564;2022-08-20T08:46:55;10.88;;;5.25;;
57989;SDS011;58373;51.824;5.564;2022-08-20T08:49:24;7.72;;;4.07;;
57989;SDS011;58373;51.824;5.564;2022-08-20T08:51:54;8.55;;;4.10;;
57989;SDS011;58373;51.824;5.564;2022-08-20T08:54:26;10.10;;;4.78;;
57989;SDS011;58373;51.824;5.564;2022-08-20T08:56:53;9.35;;;4.70;;
57989;SDS011;58373;51.824;5.564;2022-08-20T08:59:19;10.50;;;4.28;;
57989;SDS011;58373;51.824;5.564;2022-08-20T09:01:48;10.75;;;4.18;;
57989;SDS011;58373;51.824;5.564;2022-08-20T09:04:17;10.57;;;4.55;;
57989;SDS011;58373;51.824;5.564;2022-08-20T09:06:46;10.00;;;4.30;;
57989;SDS011;58373;51.824;5.564;2022-08-20T09:09:24;10.27;;;4.47;;
57989;SDS011;58373;51.824;5.564;2022-08-20T09:11:54;13.18;;;4.95;;
57989;SDS011;58373;51.824;5.564;2022-08-20T09:14:21;10.05;;;4.00;;
57989;SDS011;58373;51.824;5.564;2022-08-20T09:16:50;9.23;;;3.83;;
57989;SDS011;58373;51.824;5.564;2022-08-20T09:19:16;7.75;;;2.78;;
57989;SDS011;58373;51.824;5.564;2022-08-20T09:21:41;10.30;;;3.25;;
57989;SDS011;58373;51.824;5.564;2022-08-20T09:24:07;9.70;;;3.60;;
57989;SDS011;58373;51.824;5.564;2022-08-20T09:26:32;9.93;;;3.35;;
57989;SDS011;58373;51.824;5.564;2022-08-20T09:28:58;10.63;;;2.92;;
57989;SDS011;58373;51.824;5.564;2022-08-20T09:31:23;10.18;;;3.20;;
57989;SDS011;58373;51.824;5.564;2022-08-20T09:33:49;10.27;;;3.08;;
57989;SDS011;58373;51.824;5.564;2022-08-20T09:36:15;9.70;;;3.08;;
57989;SDS011;58373;51.824;5.564;2022-08-20T09:38:40;9.93;;;2.80;;
57989;SDS011;58373;51.824;5.564;2022-08-20T09:41:06;9.43;;;3.03;;
57989;SDS011;58373;51.824;5.564;2022-08-20T09:43:32;7.72;;;2.40;;
57989;SDS011;58373;51.824;5.564;2022-08-20T09:45:57;8.65;;;2.40;;
57989;SDS011;58373;51.824;5.564;2022-08-20T09:48:22;8.27;;;2.35;;
57989;SDS011;58373;51.824;5.564;2022-08-20T09:50:48;9.60;;;2.72;;
57989;SDS011;58373;51.824;5.564;2022-08-20T09:53:14;7.35;;;2.40;;
57989;SDS011;58373;51.824;5.564;2022-08-20T09:55:44;10.82;;;2.50;;
57989;SDS011;58373;51.824;5.564;2022-08-20T09:58:21;9.45;;;2.70;;
57989;SDS011;58373;51.824;5.564;2022-08-20T10:01:10;11.00;;;2.85;;
57989;SDS011;58373;51.824;5.564;2022-08-20T10:03:40;11.98;;;3.10;;
57989;SDS011;58373;51.824;5.564;2022-08-20T10:06:07;9.57;;;2.97;;
57989;SDS011;58373;51.824;5.564;2022-08-20T10:08:32;8.65;;;3.00;;
57989;SDS011;58373;51.824;5.564;2022-08-20T10:10:58;9.68;;;2.88;;
57989;SDS011;58373;51.824;5.564;2022-08-20T10:13:24;8.18;;;2.83;;
57989;SDS011;58373;51.824;5.564;2022-08-20T10:15:50;8.15;;;2.42;;
57989;SDS011;58373;51.824;5.564;2022-08-20T10:18:15;9.38;;;2.83;;
57989;SDS011;58373;51.824;5.564;2022-08-20T10:20:41;9.80;;;2.60;;
57989;SDS011;58373;51.824;5.564;2022-08-20T10:23:06;10.27;;;2.60;;
57989;SDS011;58373;51.824;5.564;2022-08-20T10:25:32;9.57;;;2.50;;
57989;SDS011;58373;51.824;5.564;2022-08-20T10:27:57;8.45;;;2.40;;
57989;SDS011;58373;51.824;5.564;2022-08-20T10:30:23;8.38;;;2.55;;
57989;SDS011;58373;51.824;5.564;2022-08-20T10:32:48;8.48;;;2.30;;
57989;SDS011;58373;51.824;5.564;2022-08-20T10:35:14;8.70;;;2.40;;
57989;SDS011;58373;51.824;5.564;2022-08-20T10:37:39;9.25;;;2.40;;
57989;SDS011;58373;51.824;5.564;2022-08-20T10:40:05;10.68;;;2.58;;
57989;SDS011;58373;51.824;5.564;2022-08-20T10:42:32;8.20;;;2.30;;
57989;SDS011;58373;51.824;5.564;2022-08-20T10:44:57;8.40;;;2.40;;
57989;SDS011;58373;51.824;5.564;2022-08-20T10:47:24;10.68;;;2.78;;
57989;SDS011;58373;51.824;5.564;2022-08-20T10:49:53;9.73;;;2.40;;
57989;SDS011;58373;51.824;5.564;2022-08-20T10:52:21;9.50;;;2.60;;
57989;SDS011;58373;51.824;5.564;2022-08-20T10:54:47;9.82;;;2.72;;
57989;SDS011;58373;51.824;5.564;2022-08-20T10:57:16;9.95;;;2.53;;
57989;SDS011;58373;51.824;5.564;2022-08-20T10:59:44;10.77;;;2.72;;
57989;SDS011;58373;51.824;5.564;2022-08-20T11:02:11;10.52;;;2.67;;
57989;SDS011;58373;51.824;5.564;2022-08-20T11:04:37;8.82;;;2.70;;
57989;SDS011;58373;51.824;5.564;2022-08-20T11:09:44;9.40;;;2.58;;
57989;SDS011;58373;51.824;5.564;2022-08-20T11:12:11;9.32;;;2.67;;
57989;SDS011;58373;51.824;5.564;2022-08-20T11:14:37;8.25;;;2.38;;
57989;SDS011;58373;51.824;5.564;2022-08-20T11:17:02;10.18;;;2.90;;
57989;SDS011;58373;51.824;5.564;2022-08-20T11:19:28;9.77;;;2.50;;
57989;SDS011;58373;51.824;5.564;2022-08-20T11:21:54;8.68;;;2.22;;
57989;SDS011;58373;51.824;5.564;2022-08-20T11:24:19;9.20;;;2.47;;
57989;SDS011;58373;51.824;5.564;2022-08-20T11:26:45;8.57;;;2.50;;
57989;SDS011;58373;51.824;5.564;2022-08-20T11:29:12;7.27;;;2.30;;
57989;SDS011;58373;51.824;5.564;2022-08-20T11:31:38;9.90;;;2.40;;
57989;SDS011;58373;51.824;5.564;2022-08-20T11:34:04;8.50;;;2.60;;
57989;SDS011;58373;51.824;5.564;2022-08-20T11:36:29;10.30;;;2.78;;
57989;SDS011;58373;51.824;5.564;2022-08-20T11:38:55;10.95;;;2.70;;
57989;SDS011;58373;51.824;5.564;2022-08-20T11:41:20;11.95;;;3.08;;
57989;SDS011;58373;51.824;5.564;2022-08-20T11:43:46;10.57;;;2.80;;
57989;SDS011;58373;51.824;5.564;2022-08-20T11:46:11;10.38;;;2.70;;
57989;SDS011;58373;51.824;5.564;2022-08-20T11:48:36;8.35;;;2.70;;
57989;SDS011;58373;51.824;5.564;2022-08-20T11:51:02;7.43;;;2.20;;
57989;SDS011;58373;51.824;5.564;2022-08-20T11:53:27;8.25;;;2.20;;
57989;SDS011;58373;51.824;5.564;2022-08-20T11:55:53;9.25;;;2.30;;
57989;SDS011;58373;51.824;5.564;2022-08-20T11:58:18;8.65;;;2.40;;
57989;SDS011;58373;51.824;5.564;2022-08-20T12:00:44;8.65;;;2.35;;
57989;SDS011;58373;51.824;5.564;2022-08-20T12:03:09;8.95;;;2.40;;
57989;SDS011;58373;51.824;5.564;2022-08-20T12:05:36;9.85;;;2.83;;
57989;SDS011;58373;51.824;5.564;2022-08-20T12:08:02;9.27;;;2.63;;
57989;SDS011;58373;51.824;5.564;2022-08-20T12:10:28;8.43;;;2.53;;
57989;SDS011;58373;51.824;5.564;2022-08-20T12:12:54;8.55;;;2.40;;
57989;SDS011;58373;51.824;5.564;2022-08-20T12:15:21;9.38;;;2.45;;
57989;SDS011;58373;51.824;5.564;2022-08-20T12:17:46;8.00;;;2.50;;
57989;SDS011;58373;51.824;5.564;2022-08-20T12:20:12;8.98;;;2.45;;
57989;SDS011;58373;51.824;5.564;2022-08-20T12:22:39;8.20;;;2.20;;
57989;SDS011;58373;51.824;5.564;2022-08-20T12:25:05;8.32;;;2.35;;
57989;SDS011;58373;51.824;5.564;2022-08-20T12:27:32;6.63;;;2.30;;
57989;SDS011;58373;51.824;5.564;2022-08-20T12:30:00;7.65;;;2.35;;
57989;SDS011;58373;51.824;5.564;2022-08-20T12:32:29;7.95;;;2.10;;
57989;SDS011;58373;51.824;5.564;2022-08-20T12:34:55;8.90;;;2.15;;
57989;SDS011;58373;51.824;5.564;2022-08-20T12:37:22;8.23;;;2.45;;
57989;SDS011;58373;51.824;5.564;2022-08-20T12:42:16;8.80;;;2.30;;
57989;SDS011;58373;51.824;5.564;2022-08-20T12:44:42;8.40;;;2.28;;
57989;SDS011;58373;51.824;5.564;2022-08-20T12:49:46;10.43;;;2.75;;
57989;SDS011;58373;51.824;5.564;2022-08-20T12:52:14;11.07;;;2.80;;
57989;SDS011;58373;51.824;5.564;2022-08-20T12:54:41;9.50;;;2.47;;
57989;SDS011;58373;51.824;5.564;2022-08-20T12:57:12;10.43;;;2.35;;
57989;SDS011;58373;51.824;5.564;2022-08-20T12:59:47;8.48;;;2.40;;
57989;SDS011;58373;51.824;5.564;2022-08-20T13:02:12;9.15;;;2.47;;
57989;SDS011;58373;51.824;5.564;2022-08-20T13:04:37;7.72;;;2.45;;
57989;SDS011;58373;51.824;5.564;2022-08-20T13:07:03;9.30;;;2.38;;
57989;SDS011;58373;51.824;5.564;2022-08-20T13:09:29;7.45;;;2.78;;
57989;SDS011;58373;51.824;5.564;2022-08-20T13:11:54;11.27;;;2.60;;
57989;SDS011;58373;51.824;5.564;2022-08-20T13:14:20;8.35;;;2.35;;
57989;SDS011;58373;51.824;5.564;2022-08-20T13:16:45;9.35;;;2.47;;
57989;SDS011;58373;51.824;5.564;2022-08-20T13:19:10;7.53;;;2.50;;
57989;SDS011;58373;51.824;5.564;2022-08-20T13:21:36;8.05;;;2.35;;
57989;SDS011;58373;51.824;5.564;2022-08-20T13:24:01;7.20;;;2.13;;
57989;SDS011;58373;51.824;5.564;2022-08-20T13:26:27;6.60;;;2.00;;
57989;SDS011;58373;51.824;5.564;2022-08-20T13:28:52;6.60;;;2.08;;
57989;SDS011;58373;51.824;5.564;2022-08-20T13:31:18;8.60;;;2.47;;
57989;SDS011;58373;51.824;5.564;2022-08-20T13:33:43;7.82;;;2.28;;
57989;SDS011;58373;51.824;5.564;2022-08-20T13:36:09;8.07;;;2.63;;
57989;SDS011;58373;51.824;5.564;2022-08-20T13:38:34;8.07;;;2.38;;
57989;SDS011;58373;51.824;5.564;2022-08-20T13:40:59;8.57;;;2.20;;
57989;SDS011;58373;51.824;5.564;2022-08-20T13:43:25;7.00;;;2.35;;
57989;SDS011;58373;51.824;5.564;2022-08-20T13:45:50;7.97;;;2.10;;
57989;SDS011;58373;51.824;5.564;2022-08-20T13:48:16;9.57;;;2.60;;
57989;SDS011;58373;51.824;5.564;2022-08-20T13:50:41;7.75;;;2.38;;
57989;SDS011;58373;51.824;5.564;2022-08-20T13:53:08;7.90;;;2.63;;
57989;SDS011;58373;51.824;5.564;2022-08-20T13:55:33;7.25;;;2.17;;
57989;SDS011;58373;51.824;5.564;2022-08-20T13:58:02;9.88;;;2.88;;
57989;SDS011;58373;51.824;5.564;2022-08-20T14:00:30;9.45;;;2.50;;
57989;SDS011;58373;51.824;5.564;2022-08-20T14:02:58;8.90;;;2.55;;
57989;SDS011;58373;51.824;5.564;2022-08-20T14:05:24;9.37;;;2.60;;
57989;SDS011;58373;51.824;5.564;2022-08-20T14:07:50;7.90;;;2.53;;
57989;SDS011;58373;51.824;5.564;2022-08-20T14:10:17;7.90;;;2.67;;
57989;SDS011;58373;51.824;5.564;2022-08-20T14:12:46;10.07;;;2.90;;
57989;SDS011;58373;51.824;5.564;2022-08-20T14:15:11;10.40;;;2.80;;
57989;SDS011;58373;51.824;5.564;2022-08-20T14:17:38;8.57;;;2.45;;
57989;SDS011;58373;51.824;5.564;2022-08-20T14:20:06;9.75;;;2.63;;
57989;SDS011;58373;51.824;5.564;2022-08-20T14:22:37;7.55;;;2.45;;
57989;SDS011;58373;51.824;5.564;2022-08-20T14:25:03;9.25;;;2.50;;
57989;SDS011;58373;51.824;5.564;2022-08-20T14:27:31;9.13;;;2.80;;
57989;SDS011;58373;51.824;5.564;2022-08-20T14:29:57;10.90;;;2.87;;
57989;SDS011;58373;51.824;5.564;2022-08-20T14:32:24;9.65;;;2.50;;
57989;SDS011;58373;51.824;5.564;2022-08-20T14:34:49;9.88;;;2.83;;
57989;SDS011;58373;51.824;5.564;2022-08-20T14:37:16;9.07;;;2.60;;
57989;SDS011;58373;51.824;5.564;2022-08-20T14:39:50;8.23;;;2.78;;
57989;SDS011;58373;51.824;5.564;2022-08-20T14:42:17;7.70;;;2.70;;
57989;SDS011;58373;51.824;5.564;2022-08-20T14:44:44;9.82;;;2.65;;
57989;SDS011;58373;51.824;5.564;2022-08-20T14:47:20;10.20;;;2.88;;
57989;SDS011;58373;51.824;5.564;2022-08-20T14:49:51;10.38;;;3.08;;
57989;SDS011;58373;51.824;5.564;2022-08-20T14:52:19;8.80;;;2.80;;
57989;SDS011;58373;51.824;5.564;2022-08-20T14:54:46;8.60;;;2.40;;
57989;SDS011;58373;51.824;5.564;2022-08-20T14:57:12;8.00;;;2.47;;
57989;SDS011;58373;51.824;5.564;2022-08-20T14:59:38;8.93;;;2.85;;
57989;SDS011;58373;51.824;5.564;2022-08-20T15:02:04;9.20;;;2.60;;